createdAt,value
2022-09-30T00:04:34.580Z,15.07
2022-09-30T00:09:36.377Z,15.05
2022-09-30T00:14:38.169Z,14.48
2022-09-30T00:19:39.977Z,14.20
2022-09-30T00:24:41.698Z,13.38
2022-09-30T00:29:43.933Z,13.85
2022-09-30T00:34:45.773Z,15.50
2022-09-30T00:39:47.670Z,14.20
2022-09-30T00:44:55.360Z,13.98
2022-09-30T00:50:01.688Z,15.15
2022-09-30T00:55:09.590Z,13.30
2022-09-30T01:00:11.451Z,13.75
2022-09-30T01:05:13.569Z,15.05
2022-09-30T01:10:15.347Z,15.10
2022-09-30T01:15:17.526Z,14.60
2022-09-30T01:20:52.497Z,14.18
2022-09-30T01:26:24.109Z,13.80
2022-09-30T01:31:41.735Z,12.88
2022-09-30T01:36:55.778Z,15.30
2022-09-30T01:42:18.954Z,13.77
2022-09-30T01:47:34.625Z,13.73
2022-09-30T01:52:46.579Z,16.08
2022-09-30T01:58:03.728Z,14.75
2022-09-30T02:03:16.294Z,16.92
2022-09-30T02:08:30.137Z,15.90
2022-09-30T02:13:41.173Z,14.45
2022-09-30T02:18:46.801Z,14.30
2022-09-30T02:23:53.576Z,13.35
2022-09-30T02:29:04.084Z,15.18
2022-09-30T02:34:11.508Z,15.13
2022-09-30T02:39:27.234Z,14.18
2022-09-30T02:44:31.782Z,16.85
2022-09-30T02:49:45.501Z,14.23
2022-09-30T02:55:06.941Z,16.45
2022-09-30T03:00:13.024Z,15.20
2022-09-30T03:05:17.516Z,14.52
2022-09-30T03:10:19.347Z,14.75
2022-09-30T03:15:30.002Z,14.48
2022-09-30T03:20:50.508Z,17.67
2022-09-30T03:26:03.459Z,16.17
2022-09-30T03:31:07.899Z,15.43
2022-09-30T03:36:21.841Z,16.02
2022-09-30T03:41:47.796Z,15.90
2022-09-30T03:46:57.437Z,15.43
2022-09-30T03:52:00.203Z,15.80
2022-09-30T03:57:05.186Z,16.48
2022-09-30T04:02:13.317Z,15.77
2022-09-30T04:07:15.256Z,16.47
2022-09-30T04:12:17.050Z,17.13
2022-09-30T04:17:19.147Z,17.52
2022-09-30T04:22:24.265Z,20.20
2022-09-30T04:27:30.319Z,16.58
2022-09-30T04:32:32.420Z,16.15
2022-09-30T04:37:34.220Z,18.95
2022-09-30T04:42:36.001Z,19.55
2022-09-30T04:47:37.844Z,16.85
2022-09-30T04:52:43.057Z,16.45
2022-09-30T04:57:45.389Z,17.27
2022-09-30T05:02:47.846Z,17.40
2022-09-30T05:07:49.573Z,18.63
2022-09-30T05:12:52.906Z,16.08
2022-09-30T05:17:54.676Z,16.70
2022-09-30T05:22:56.856Z,16.40
2022-09-30T05:27:58.570Z,17.20
2022-09-30T05:33:00.290Z,17.48
2022-09-30T05:38:04.652Z,17.90
2022-09-30T05:43:07.221Z,21.30
2022-09-30T05:48:09.377Z,19.35
2022-09-30T05:53:11.064Z,21.02
2022-09-30T05:58:13.507Z,22.27
2022-09-30T06:03:15.987Z,19.17
2022-09-30T06:08:17.740Z,19.63
2022-09-30T06:13:21.346Z,19.45
2022-09-30T06:18:23.467Z,20.45
2022-09-30T06:23:25.865Z,22.25
2022-09-30T06:28:27.708Z,22.45
2022-09-30T06:33:29.859Z,18.40
2022-09-30T06:38:39.792Z,21.02
2022-09-30T06:43:52.208Z,20.80
2022-09-30T06:49:10.725Z,23.35
2022-09-30T06:54:14.952Z,19.08
2022-09-30T06:59:17.115Z,20.48
2022-09-30T07:04:19.233Z,19.23
2022-09-30T07:09:21.352Z,17.98
2022-09-30T07:14:24.137Z,19.58
2022-09-30T07:19:25.920Z,19.55
2022-09-30T07:24:28.698Z,19.52
2022-09-30T07:29:44.443Z,19.42
2022-09-30T07:34:52.955Z,17.90
2022-09-30T07:39:54.696Z,20.05
2022-09-30T07:44:56.581Z,22.45
2022-09-30T07:49:58.484Z,18.63
2022-09-30T07:55:00.226Z,19.67
2022-09-30T08:00:16.950Z,20.42
2022-09-30T08:05:23.864Z,19.02
2022-09-30T08:10:25.588Z,17.65
2022-09-30T08:15:27.702Z,15.98
2022-09-30T08:20:29.499Z,19.50
2022-09-30T08:25:31.266Z,16.42
2022-09-30T08:30:36.011Z,16.20
2022-09-30T08:35:37.859Z,16.98
2022-09-30T08:40:57.693Z,15.77
2022-09-30T08:46:16.280Z,16.98
2022-09-30T08:51:31.904Z,16.60
2022-09-30T08:56:34.576Z,18.25
2022-09-30T09:01:40.945Z,14.68
2022-09-30T09:07:19.390Z,14.27
2022-09-30T09:12:39.564Z,15.02
2022-09-30T09:18:22.752Z,15.55
2022-09-30T09:23:26.742Z,16.15
2022-09-30T09:28:42.057Z,13.82
2022-09-30T09:33:44.601Z,13.48
2022-09-30T09:39:14.866Z,11.82
2022-09-30T09:44:26.399Z,11.27
2022-09-30T09:49:30.981Z,9.50
2022-09-30T09:54:37.695Z,10.57
2022-09-30T10:00:02.191Z,9.93
2022-09-30T10:05:29.846Z,10.50
2022-09-30T10:10:51.384Z,11.18
2022-09-30T10:15:56.762Z,11.38
2022-09-30T10:21:19.360Z,10.15
2022-09-30T10:26:24.795Z,8.40
2022-09-30T10:31:34.790Z,9.50
2022-09-30T10:36:39.538Z,8.75
2022-09-30T10:41:41.335Z,8.65
2022-09-30T10:46:46.415Z,9.75
2022-09-30T10:51:48.231Z,8.70
2022-09-30T10:56:52.593Z,8.73
2022-09-30T11:02:01.870Z,9.65
2022-09-30T11:07:30.108Z,8.00
2022-09-30T11:12:45.592Z,8.35
2022-09-30T11:18:01.414Z,8.90
2022-09-30T11:23:30.870Z,7.05
2022-09-30T11:28:32.520Z,6.07
2022-09-30T11:33:46.540Z,7.78
2022-09-30T11:39:06.556Z,7.85
2022-09-30T11:44:34.997Z,7.90
2022-09-30T11:50:07.341Z,5.28
2022-09-30T11:55:35.310Z,5.63
2022-09-30T12:00:46.986Z,4.90
2022-09-30T12:05:56.279Z,4.70
2022-09-30T12:11:12.227Z,4.97
2022-09-30T12:16:21.529Z,4.97
2022-09-30T12:26:46.004Z,6.03
2022-09-30T12:32:09.553Z,4.63
2022-09-30T12:37:44.290Z,4.93
2022-09-30T12:43:04.651Z,4.68
2022-09-30T12:48:15.129Z,4.30
2022-09-30T12:53:37.756Z,4.32
2022-09-30T12:58:49.326Z,3.92
2022-09-30T13:03:52.594Z,3.70
2022-09-30T13:08:57.277Z,3.50
2022-09-30T13:14:16.215Z,4.78
2022-09-30T13:19:22.160Z,6.22
2022-09-30T13:25:09.901Z,4.85
2022-09-30T13:30:20.253Z,3.28
2022-09-30T13:35:40.973Z,3.53
2022-09-30T13:41:02.292Z,6.63
2022-09-30T13:46:25.781Z,3.53
2022-09-30T13:51:31.875Z,4.32
2022-09-30T13:56:37.452Z,5.90
2022-09-30T14:02:07.026Z,4.25
2022-09-30T14:07:19.447Z,4.38
2022-09-30T14:12:39.258Z,4.22
2022-09-30T14:17:59.569Z,3.22
2022-09-30T14:23:01.666Z,4.72
2022-09-30T14:28:08.561Z,5.63
2022-09-30T14:33:24.354Z,6.15
2022-09-30T14:38:29.527Z,4.80
2022-09-30T14:43:38.881Z,3.10
2022-09-30T14:48:45.553Z,4.03
2022-09-30T14:54:03.349Z,4.15
2022-09-30T14:59:24.777Z,4.75
2022-09-30T15:04:33.457Z,4.68
2022-09-30T15:09:38.397Z,6.17
2022-09-30T15:14:55.867Z,5.85
2022-09-30T15:19:58.828Z,4.25
2022-09-30T15:25:00.747Z,4.38
2022-09-30T15:30:24.824Z,3.95
2022-09-30T15:35:27.026Z,4.80
2022-09-30T15:40:46.885Z,5.20
2022-09-30T15:45:50.299Z,4.43
2022-09-30T15:50:55.712Z,4.18
2022-09-30T15:55:59.834Z,4.47
2022-09-30T16:01:27.541Z,4.97
2022-09-30T16:06:46.436Z,4.10
2022-09-30T16:12:03.646Z,4.53
2022-09-30T16:17:06.441Z,3.97
2022-09-30T16:22:33.893Z,4.47
2022-09-30T16:27:35.697Z,4.43
2022-09-30T16:32:41.304Z,5.47
2022-09-30T16:37:44.090Z,6.22
2022-09-30T16:42:46.022Z,5.82
2022-09-30T16:47:48.382Z,8.20
2022-09-30T16:52:50.125Z,10.02
2022-09-30T16:57:53.137Z,8.13
2022-09-30T17:02:55.521Z,8.55
2022-09-30T17:07:59.302Z,8.73
2022-09-30T17:13:01.270Z,9.43
2022-09-30T17:18:08.743Z,11.95
2022-09-30T17:23:11.494Z,11.13
2022-09-30T17:28:13.706Z,11.57
2022-09-30T17:33:16.110Z,11.52
2022-09-30T17:38:17.931Z,12.43
2022-09-30T17:43:19.892Z,14.77
2022-09-30T17:48:21.769Z,8.95
2022-09-30T17:53:23.974Z,9.65
2022-09-30T17:58:26.039Z,12.55
2022-09-30T18:03:28.181Z,11.75
2022-09-30T18:08:29.968Z,10.50
2022-09-30T18:13:31.755Z,12.15
2022-09-30T18:18:34.549Z,11.00
2022-09-30T18:23:36.264Z,8.93
2022-09-30T18:28:37.989Z,11.80
2022-09-30T18:33:39.738Z,13.93
2022-09-30T18:38:41.434Z,18.02
2022-09-30T18:43:45.192Z,15.38
2022-09-30T18:48:49.966Z,17.55
2022-09-30T18:53:57.491Z,13.77
2022-09-30T18:59:04.692Z,16.20
2022-09-30T19:04:06.546Z,15.25
2022-09-30T19:09:08.997Z,16.73
2022-09-30T19:14:12.553Z,19.05
2022-09-30T19:19:15.423Z,16.50
2022-09-30T19:24:17.484Z,17.17
2022-09-30T19:29:19.204Z,16.08
2022-09-30T19:34:30.924Z,18.77
2022-09-30T19:39:44.331Z,18.10
2022-09-30T19:44:47.748Z,16.95
2022-09-30T19:49:49.463Z,18.88
2022-09-30T19:54:51.814Z,22.67
2022-09-30T19:59:53.538Z,23.02
2022-09-30T20:04:55.282Z,23.95
2022-09-30T20:09:57.460Z,34.53
2022-09-30T20:15:18.096Z,22.45
2022-09-30T20:20:34.940Z,19.50
2022-09-30T20:25:36.726Z,18.27
2022-09-30T20:30:47.862Z,19.42
2022-09-30T20:35:50.068Z,20.17
2022-09-30T20:40:58.980Z,18.50
2022-09-30T20:46:08.226Z,17.23
2022-09-30T20:56:15.142Z,18.33
2022-09-30T21:01:19.326Z,17.10
2022-09-30T21:06:25.848Z,18.70
2022-09-30T21:11:27.669Z,19.27
2022-09-30T21:16:29.687Z,19.23
2022-09-30T21:21:31.864Z,19.55
2022-09-30T21:26:33.754Z,20.30
2022-09-30T21:31:37.742Z,18.77
2022-09-30T21:36:40.250Z,19.02
2022-09-30T21:41:42.530Z,22.23
2022-09-30T21:46:48.750Z,18.75
2022-09-30T21:51:52.908Z,19.95
2022-09-30T21:56:54.670Z,21.83
2022-09-30T22:01:56.517Z,20.45
2022-09-30T22:06:58.264Z,19.70
2022-09-30T22:12:02.072Z,20.63
2022-09-30T22:17:09.169Z,21.23
2022-09-30T22:22:11.360Z,20.85
2022-09-30T22:27:14.109Z,22.38
2022-09-30T22:32:15.933Z,20.45
2022-09-30T22:37:36.147Z,22.50
2022-09-30T22:42:38.689Z,20.52
2022-09-30T22:47:40.434Z,20.38
2022-09-30T22:52:42.240Z,20.90
2022-09-30T22:57:43.961Z,22.42
2022-09-30T23:02:45.666Z,23.75
2022-09-30T23:07:47.365Z,23.45
2022-09-30T23:12:51.196Z,24.33
2022-09-30T23:17:52.898Z,22.27
2022-09-30T23:22:54.619Z,23.38
2022-09-30T23:27:56.458Z,23.05
2022-09-30T23:33:01.326Z,21.95
2022-09-30T23:38:03.079Z,20.95
2022-09-30T23:43:04.793Z,21.75
2022-09-30T23:48:06.578Z,22.33
2022-09-30T23:53:08.263Z,18.13
2022-09-30T23:58:09.986Z,19.23
